Observations for GLASGOW AIRPORT, United Kingdom (EGPF)

EGPF 191320Z AUTO 20013KT 9999 SCT017 BKN023 08/05 Q1011
EGPF 191250Z AUTO 21012KT 9999 BKN016 BKN045 08/05 Q1011
EGPF 191220Z AUTO 21010KT 9999 FEW016 BKN041 07/05 Q1011
EGPF 191150Z AUTO 21012KT 9999 SCT016 07/05 Q1011   
EGPF 191120Z AUTO 21013KT 9999 BKN048/// //////CB 08/05 Q1011   
EGPF 191050Z AUTO 21013KT 9999 FEW015 OVC042 08/06 Q1011
EGPF 191020Z AUTO 21015KT 9999 BKN034/// OVC047/// //////TCU 07/05 Q1011
EGPF 190950Z AUTO 22016KT 9999 BKN038 07/05 Q1011   
EGPF 190920Z AUTO 22013KT 9999 BKN030/// OVC037/// //////CB 07/05 Q1011 
EGPF 190850Z AUTO 22013KT 9999 BKN029 BKN035 OVC044 07/06 Q1010 
EGPF 190820Z AUTO 23008KT 9999 BKN028/// OVC045/// //////CB 07/06 Q1010 
EGPF 190750Z AUTO 23009KT 9999 BKN020/// OVC038/// //////CB 07/06 Q1010 
EGPF 190720Z AUTO 24004KT 9999 -RA BKN015/// BKN020/// OVC027/// //////CB 06/05 Q1010   
EGPF 190650Z AUTO VRB02KT 9999 BKN016 OVC031 06/05 Q1010
EGPF 190620Z AUTO 22005KT 9999 FEW022/// SCT027/// BKN032/// //////CB 06/05 Q1010   
EGPF 190550Z AUTO 25010KT 9999 -RA BKN029/// OVC042/// //////TCU 06/05 Q1010
EGPF 190520Z AUTO 21010KT 9999 BKN044/// //////TCU 06/04 Q1009  
EGPF 190450Z AUTO 22009KT 9999 BKN043/// //////TCU 06/05 Q1009  
EGPF 190420Z AUTO 23008KT 9999 SCT048/// //////TCU 04/03 Q1009  
EGPF 190350Z AUTO 24005KT 9999 NCD 05/03 Q1009  
EGPF 190320Z AUTO 24009KT 9999 NCD 05/04 Q1009  
EGPF 190250Z AUTO 21009KT 9999 NCD 05/03 Q1008  
EGPF 190220Z AUTO 23008KT 9999 NCD 06/04 Q1008  
EGPF 190150Z AUTO 24008KT 9999 -RA FEW037/// //////TCU 06/04 Q1008  
EGPF 190120Z AUTO 22005KT 9999 FEW043 05/04 Q1008   
EGPF 190050Z AUTO 24008KT 9999 BKN037 OVC047 07/05 Q1007
EGPF 190020Z AUTO 24010KT 9999 BKN045 06/04 Q1007   
EGPF 182350Z AUTO 24011KT 9999 -RA BKN035 BKN045 07/05 Q1007
EGPF 182320Z AUTO 25016KT 9999 NCD 07/04 Q1006  
EGPF 182250Z AUTO 25014KT 9999 FEW047 07/04 Q1006   
EGPF 182220Z AUTO 25014KT 9999 NCD 07/04 Q1005  
EGPF 182150Z AUTO 24014KT 9999 NCD 06/04 Q1005  
EGPF 182120Z AUTO 24016KT 9999 NCD 07/05 Q1005  
EGPF 182050Z AUTO 25012KT 9999 BKN026/// //////TCU 07/05 Q1005  
EGPF 182020Z AUTO 25013KT 9999 -RA FEW019/// BKN028/// BKN033/// //////TCU 07/06 Q1005 RERA 
EGPF 181950Z AUTO 25013KT 9999 -RA SCT021/// BKN032/// BKN043/// //////CB 08/06 Q1004   
EGPF 181920Z AUTO 25011KT 9999 -RA BKN019/// //////CB 08/06 Q1003   
EGPF 181850Z AUTO 23017KT 9999 -RA SCT019/// BKN033/// BKN042/// //////CB 08/06 Q1003   
EGPF 181820Z AUTO 24015KT 9999 SCT038/// //////CB 08/05 Q1003   
EGPF 181750Z AUTO 24016KT 9999 FEW020/// SCT044/// //////CB 07/05 Q1003 
EGPF 181720Z AUTO 23017KT 9999 BKN021/// BKN028/// BKN035/// //////CB 08/05 Q1002   
EGPF 181650Z AUTO 23016KT 9999 FEW021/// BKN025/// BKN034/// //////CB 08/06 Q1002   
EGPF 181620Z AUTO 22020KT 9999 SCT022/// BKN033/// //////CB 07/05 Q1002 
EGPF 181550Z AUTO 22018KT 9999 //////CB 08/06 Q1001 
EGPF 181520Z AUTO 22020KT 9000 -RA FEW013/// BKN034/// //////CB 08/06 Q1002 
EGPF 181450Z AUTO 22016KT 5000 -RA SCT012/// BKN016/// BKN021/// //////CB 07/06 Q1002 RERA  
EGPF 181420Z AUTO 21020KT 9000 -RA SCT016/// BKN028/// BKN039/// //////CB 07/06 Q1001   
EGPF 181350Z AUTO 21022KT 8000 -RA BKN025/// BKN031/// OVC045/// //////CB 07/05 Q1001   
EGPF 181320Z AUTO 21020KT 9000 -RA SCT017/// BKN022/// OVC049/// //////TCU 07/05 Q1002  
EGPF 181250Z AUTO 20020KT 9999 BKN017/// OVC030/// //////TCU 08/05 Q1002